CSUN New Campus Station -PST Time - Most Recent Data on bottom of page




           Date/Time      Avg      Avg      Max     Wind      Avg      Max      Min      Avg      Avg    Total      Avg     Batt
                         Wind     Wind     Wind      Dir     Temp     Temp     Temp       RH      Bar     Rain    Solar     Volt
                      Spd MPH      Dir  Spd MPH   at Max    Deg_F    Deg_F    Deg_F        % Press_mb   Inches     W/m2      Min
--------------------------------------------------------------------------------------------------------------------------------
    11/17/2017 00:00      1.2      290      2.8      301     61.8     62.0     61.5       65     1014     0.00        0     13.2
    11/17/2017 00:15      0.5      306      1.5      285     61.8     62.0     61.5       66     1014     0.00        0     13.2
    11/17/2017 00:30      0.3      309      1.3      303     61.7     61.9     61.5       67     1014     0.00        0     13.2
    11/17/2017 00:45      1.3      253      2.9      253     61.5     61.8     61.2       68     1014     0.00        0     13.2
    11/17/2017 01:00      1.7      267      4.5      246     61.7     62.0     61.3       63     1014     0.00        0     13.3
    11/17/2017 01:15      0.8      232      2.5      270     61.8     62.1     61.6       64     1014     0.00        0     13.2
    11/17/2017 01:30      1.1      271      3.1      259     61.7     62.0     61.5       62     1014     0.00        0     13.2
    11/17/2017 01:45      1.1      284      2.3      262     61.8     62.1     61.6       63     1014     0.00        0     13.2
    11/17/2017 02:00      0.6      268      1.8      233     61.5     61.8     61.3       66     1014     0.00        0     13.3
    11/17/2017 02:15      0.6      155      1.8       99     61.2     61.5     60.9       66     1014     0.00        0     13.3
    11/17/2017 02:30      0.6      137      2.2      128     61.3     61.5     61.0       67     1014     0.00        0     13.3
    11/17/2017 02:45      1.7      161      3.1      143     61.0     61.3     60.8       67     1014     0.00        0     13.3
    11/17/2017 03:00      0.9      151      2.6      179     61.0     61.2     60.8       66     1014     0.00        0     13.3
    11/17/2017 03:15      0.8      276      2.6      315     61.1     61.5     60.7       68     1014     0.00        0     13.3
    11/17/2017 03:30      0.6      258      2.4      253     60.8     61.0     60.5       66     1014     0.00        0     13.3
    11/17/2017 03:45      0.8      260      3.2      255     61.0     61.3     60.7       65     1014     0.00        0     13.3
    11/17/2017 04:00      2.1      259      4.2      263     61.3     61.5     61.0       66     1015     0.00        0     13.3
    11/17/2017 04:15      0.6      269      1.8      268     60.9     61.3     60.3       70     1015     0.00        0     13.3
    11/17/2017 04:30      1.1      318      1.8      340     60.5     60.7     60.3       71     1015     0.00        0     13.3
    11/17/2017 04:45      0.5      325      1.6      340     60.4     60.6     60.2       70     1015     0.00        0     13.3
    11/17/2017 05:00      0.7      311      1.2      325     60.4     60.6     60.1       73     1015     0.00        0     13.3
    11/17/2017 05:15      0.3      305      1.0      302     60.3     60.5     60.0       72     1015     0.00        0     13.3
    11/17/2017 05:30      0.2      316      0.9      333     60.2     60.4     60.0       72     1015     0.00        0     13.3
    11/17/2017 05:45      0.0      305      0.5      305     59.9     60.1     59.6       73     1015     0.00        0     13.3
    11/17/2017 06:00      0.0       82      0.6       82     59.5     59.8     59.1       72     1015     0.00        0     13.3
    11/17/2017 06:15      0.2      176      1.0      123     59.1     59.4     58.8       74     1015     0.00        0     13.3
    11/17/2017 06:30      0.2      116      1.4      106     58.9     59.2     58.7       75     1015     0.00        0     13.3
    11/17/2017 06:45      0.6      117      1.6      120     59.1     59.4     58.8       74     1016     0.00        2     13.3
    11/17/2017 07:00      0.5      149      1.4      132     59.1     59.4     58.9       75     1016     0.00        4     13.3
    11/17/2017 07:15      0.9      245      2.5      278     59.0     59.2     58.7       76     1016     0.00        8     13.3
    11/17/2017 07:30      0.8      296      2.2      278     59.2     59.5     58.9       76     1016     0.00       17     13.3
    11/17/2017 07:45      0.6      261      2.5      261     59.5     59.8     59.1       76     1017     0.00       44     13.3
    11/17/2017 08:00      1.9      261      2.9      244     60.0     60.3     59.6       74     1017     0.00       54     13.3
    11/17/2017 08:15      1.6      265      3.1      252     60.8     61.4     60.2       72     1017     0.00       82     13.3
    11/17/2017 08:30      0.5      207      1.6      257     61.7     62.3     61.3       71     1017     0.00       56     13.3
    11/17/2017 08:45      1.2      165      2.6      165     62.7     63.4     62.1       68     1017     0.00       94     13.2
    11/17/2017 09:00      1.4       91      3.2      113     64.5     65.8     63.1       62     1017     0.00      304     13.2
    11/17/2017 09:15      1.6       44      4.3      161     66.0     67.1     65.5       60     1017     0.00      336     13.2
    11/17/2017 09:30      2.2      169      4.5      207     67.6     68.3     66.8       57     1017     0.00      393     13.1
    11/17/2017 09:45      2.6      188      6.1      191     67.8     68.4     66.9       59     1017     0.00      434     13.1
    11/17/2017 10:00      3.4      190      7.0      160     68.6     69.7     67.7       53     1017     0.00      481     13.1
    11/17/2017 10:15      2.6      246      6.0      181     68.4     69.7     67.6       56     1017     0.00      432     13.1
    11/17/2017 10:30      2.3      224      5.1      259     68.5     68.9     67.9       53     1017     0.00      416     13.1
    11/17/2017 10:45      3.9      177      9.3      188     69.4     70.0     68.7       51     1017     0.00      539     13.1
    11/17/2017 11:00      3.9      200      9.9      185     70.2     70.6     69.5       51     1017     0.00      540     13.1
    11/17/2017 11:15      3.6      186      7.3      203     70.5     71.1     69.5       49     1017     0.00      584     13.1
    11/17/2017 11:30      1.8      203      3.8      234     71.2     71.5     70.6       49     1017     0.00      553     13.1
    11/17/2017 11:45      2.8      197      8.5      184     72.2     73.3     71.0       46     1016     0.00      621     13.0
    11/17/2017 12:00      3.1      141      7.8      208     72.3     74.3     70.5       51     1016     0.00      368     13.0
    11/17/2017 12:15      3.4      184      6.7      127     71.6     72.3     70.5       49     1016     0.00      319     13.0
    11/17/2017 12:30      3.0      214      6.8      178     72.0     73.3     70.9       48     1016     0.00      567     13.1
    11/17/2017 12:45      3.5      171      8.1      152     72.6     73.2     72.2       47     1016     0.00      549     13.1
    11/17/2017 13:00      2.7      229      5.5      296     72.4     73.1     71.3       49     1015     0.00      231     13.1
    11/17/2017 13:15      1.2      254      4.9      225     71.6     73.0     71.0       48     1015     0.00      284     13.1
    11/17/2017 13:30      3.2      210      7.8      170     73.8     74.7     72.8       44     1015     0.00      455     13.1
    11/17/2017 13:45      4.1      194      8.6      267     74.0     74.8     73.3       45     1015     0.00      450     13.0
    11/17/2017 14:00      4.0      280      9.6      259     73.4     74.5     72.2       48     1015     0.00      326     13.0
    11/17/2017 14:15      4.0      260     10.9      244     72.0     72.2     71.7       50     1015     0.00      219     13.0
    11/17/2017 14:30      4.0      235      9.3      213     73.0     73.6     72.2       48     1015     0.00      316     13.1
    11/17/2017 14:45      4.0      269      7.8      264     72.5     73.1     72.0       49     1015     0.00      296     13.1
    11/17/2017 15:00      4.5      245     11.8      251     72.1     72.8     71.5       49     1015     0.00      290     13.1
    11/17/2017 15:15      3.7      264     10.7      248     71.8     72.3     71.3       46     1015     0.00      250     13.1
    11/17/2017 15:30      4.1      264      9.9      242     71.9     72.3     71.2       48     1015     0.00      209     13.1
    11/17/2017 15:45      4.1      268     10.0      256     71.1     71.6     70.6       48     1015     0.00      168     13.1
    11/17/2017 16:00      3.8      252      8.9      253     70.5     71.1     69.5       51     1015     0.00      110     13.1
    11/17/2017 16:15      3.8      276      9.3      252     69.0     69.7     68.4       54     1015     0.00       20     13.1
    11/17/2017 16:30      3.7      280      8.6      311     67.9     68.6     67.2       58     1015     0.00       17     13.1
    11/17/2017 16:45      3.9      265      9.6      244     66.9     67.5     66.4       59     1015     0.00        9     13.1
    11/17/2017 17:00      3.3      271      9.7      260     66.2     66.5     65.7       60     1015     0.00        3     13.2
    11/17/2017 17:15      3.6      254      6.5      243     65.5     66.0     65.1       62     1015     0.00        0     13.2
    11/17/2017 17:30      3.6      251      6.9      248     65.0     65.4     64.6       64     1015     0.00        0     13.2
    11/17/2017 17:45      2.8      254      5.3      244     64.5     64.8     64.1       64     1015     0.00        0     13.2
    11/17/2017 18:00      1.8      236      5.9      248     64.0     64.3     63.6       65     1016     0.00        0     13.2
    11/17/2017 18:15      1.7      238      5.2      270     63.4     63.8     63.0       66     1016     0.00        0     13.2
    11/17/2017 18:30      1.7      226      3.0      223     62.7     63.1     62.4       67     1016     0.00        0     13.2
    11/17/2017 18:45      1.1      226      2.6      218     62.2     62.7     61.7       68     1016     0.00        0     13.2
    11/17/2017 19:00      1.4      214      3.5      191     61.7     62.0     61.5       69     1016     0.00        0     13.2
    11/17/2017 19:15      2.0      210      4.6      195     61.4     61.7     61.2       68     1016     0.00        0     13.3
    11/17/2017 19:30      1.0      222      3.3      196     61.0     61.4     60.5       69     1016     0.00        0     13.3
    11/17/2017 19:45      1.1      277      3.5      252     60.2     60.6     59.7       71     1016     0.00        0     13.3
    11/17/2017 20:00      0.2      264      1.4      281     59.6     60.0     59.2       73     1017     0.00        0     13.3
    11/17/2017 20:15      0.7      310      1.8      314     59.0     59.4     58.6       74     1017     0.00        0     13.3
    11/17/2017 20:30      0.6      288      1.5      349     58.5     59.1     58.0       75     1017     0.00        0     13.3
    11/17/2017 20:45      1.2      279      3.6      284     58.2     58.4     57.9       76     1017     0.00        0     13.3
    11/17/2017 21:00      0.8      263      2.5      201     57.7     58.0     57.4       78     1017     0.00        0     13.3
    11/17/2017 21:15      0.9      180      2.7      183     57.4     57.7     57.0       79     1017     0.00        0     13.3
    11/17/2017 21:30      0.6      204      1.6      207     56.9     57.2     56.6       79     1017     0.00        0     13.3
    11/17/2017 21:45      0.1      151      0.8      157     56.5     56.8     56.3       81     1017     0.00        0     13.3
    11/17/2017 22:00      1.0       44      2.2       33     56.7     57.2     56.4       81     1018     0.00        0     13.3
    11/17/2017 22:15      1.2       51      3.1       29     57.5     57.8     57.0       78     1018     0.00        0     13.3
    11/17/2017 22:30      1.1       41      2.8       11     56.9     57.4     56.5       80     1018     0.00        0     13.3
    11/17/2017 22:45      2.0       29      4.1       50     57.0     57.4     56.7       79     1018     0.00        0     13.3
    11/17/2017 23:00      1.0      350      2.3      332     56.9     57.3     56.6       79     1018     0.00        0     13.3
    11/17/2017 23:15      1.4       72      2.8       56     56.6     56.9     56.2       79     1018     0.00        0     13.3
    11/17/2017 23:30      1.3       73      4.7       39     56.0     56.4     55.6       81     1018     0.00        0     13.3
    11/17/2017 23:45      0.8       58      2.5       78     56.1     56.3     55.8       79     1018     0.00        0     13.3
    11/18/2017 00:00      0.7      295      2.5      276     55.3     55.8     54.8       81     1018     0.00        0     13.3
    11/18/2017 00:15      0.9      309      1.8      286     54.9     55.3     54.8       82     1018     0.00        0     13.3
    11/18/2017 00:30      0.3      276      1.3      287     54.5     55.0     54.2       83     1018     0.00        0     13.3
    11/18/2017 00:45      0.3      272      0.9      288     53.8     54.4     53.3       83     1018     0.00        0     13.4
    11/18/2017 01:00      0.0      248      0.3      248     53.4     53.7     53.0       84     1018     0.00        0     13.4
    11/18/2017 01:15      0.2      279      1.4      271     53.0     53.3     52.6       85     1018     0.00        0     13.4
    11/18/2017 01:30      0.2      258      1.3      269     52.9     53.3     52.6       85     1018     0.00        0     13.4
    11/18/2017 01:45      0.6      297      1.7      321     52.6     53.0     52.3       86     1018     0.00        0     13.4
    11/18/2017 02:00      0.7      310      1.7      325     52.8     53.0     52.6       87     1018     0.00        0     13.4
    11/18/2017 02:15      0.7      302      2.0      298     52.4     52.9     51.9       86     1019     0.00        0     13.4
    11/18/2017 02:30      0.8      277      2.1      260     51.9     52.1     51.6       87     1019     0.00        0     13.4
    11/18/2017 02:45      1.7      278      4.1      247     51.9     52.2     51.6       87     1018     0.00        0     13.4
    11/18/2017 03:00      1.4      120      3.1      153     52.2     52.5     51.9       87     1018     0.00        0     13.4
    11/18/2017 03:15      1.4      126      4.3      152     52.1     52.5     51.7       87     1018     0.00        0     13.4
    11/18/2017 03:30      1.5      137      3.9      167     52.2     52.5     51.8       87     1018     0.00        0     13.4
    11/18/2017 03:45      1.5      353      8.4      339     52.2     53.1     51.8       85     1018     0.00        0     13.4
    11/18/2017 04:00      2.6      354      8.0      350     55.8     57.8     53.1       60     1018     0.00        0     13.4
    11/18/2017 04:15      3.5      351     11.6        2     58.4     59.3     57.7       51     1018     0.00        0     13.4
    11/18/2017 04:30      4.1      355     11.8       10     59.1     59.4     58.9       47     1018     0.00        0     13.4
    11/18/2017 04:45      4.1      355     12.8      340     59.0     59.4     58.7       45     1018     0.00        0     13.4
    11/18/2017 05:00      4.3      352     13.6        2     59.1     59.3     58.9       45     1018     0.00        0     13.4
    11/18/2017 05:15      4.4      353     10.3        0     59.1     59.4     58.7       45     1018     0.00        0     13.3
    11/18/2017 05:30      4.1      345      9.6      325     59.1     59.3     58.8       44     1018     0.00        0     13.3
    11/18/2017 05:45      4.8      340     14.1      332     59.2     59.5     59.0       44     1018     0.00        0     13.3
    11/18/2017 06:00      4.4      343     13.3      354     59.1     59.4     58.8       44     1019     0.00        0     13.3
    11/18/2017 06:15      5.0      342     11.7      339     59.0     59.2     58.8       44     1019     0.00        0     13.3
    11/18/2017 06:30      3.4      342     11.1      348     58.8     59.1     58.6       44     1019     0.00        2     13.3
    11/18/2017 06:45      3.9      343     10.9       22     58.9     59.2     58.6       43     1019     0.00        7     13.3
    11/18/2017 07:00      3.3      341      9.8      335     59.3     59.8     58.9       41     1019     0.00       24     13.3
    11/18/2017 07:15      3.6      343      9.8      330     60.2     60.8     59.5       36     1019     0.00       49     13.3
    11/18/2017 07:30      4.8      335     13.8      314     60.9     61.4     60.5       33     1019     0.00       51     13.3
    11/18/2017 07:45      3.4      336     11.7      351     61.5     62.0     61.2       33     1020     0.00       38     13.3
    11/18/2017 08:00      3.3      339      9.9      335     62.2     62.4     61.7       32     1020     0.00       31     13.3
    11/18/2017 08:15      4.6      334     12.7      340     62.5     63.0     62.1       31     1020     0.00       35     13.3
    11/18/2017 08:30      4.9      339     13.1      300     63.1     63.5     62.8       27     1020     0.00       41     13.3
    11/18/2017 08:45      4.6      337     14.9      328     63.9     64.4     63.3       25     1020     0.00       87     13.3
    11/18/2017 09:00      4.3      337     14.6      318     65.1     65.8     64.3       24     1020     0.00      312     13.2
    11/18/2017 09:15      4.3      340     11.5      336     66.3     66.9     65.8       23     1020     0.00      280     13.2
    11/18/2017 09:30      4.2      348     12.8      350     67.3     68.0     66.5       23     1020     0.00      430     13.2
    11/18/2017 09:45      3.8      339     10.8      342     68.4     69.3     67.8       21     1020     0.00      461     13.1
    11/18/2017 10:00      3.7      343     13.8      333     69.5     69.9     69.0       20     1020     0.00      488     13.1
    11/18/2017 10:15      4.2      348     15.6        0     70.3     71.0     69.6       18     1020     0.00      513     13.1
    11/18/2017 10:30      5.5      342     16.6      341     70.2     70.9     69.9       17     1020     0.00      534     13.1
    11/18/2017 10:45      5.3      331     14.3      339     70.8     71.3     70.3       17     1020     0.00      552     13.1
    11/18/2017 11:00      5.6      325     14.8      334     71.3     71.9     70.8       15     1020     0.00      565     13.1
    11/18/2017 11:15      6.5      331     13.8      335     71.5     71.9     71.0       15     1020     0.00      576     13.1
    11/18/2017 11:30      6.6      338     15.8      325     71.6     72.2     71.1       14     1020     0.00      583     13.1
    11/18/2017 11:45      6.3      335     17.1      323     72.1     72.6     71.7       15     1019     0.00      585     13.1
    11/18/2017 12:00      5.0      341     16.0      344     73.2     73.8     72.6       14     1019     0.00      584     13.1
    11/18/2017 12:15      5.2      335     16.3      332     73.6     74.5     72.7       14     1019     0.00      579     13.1
    11/18/2017 12:30      6.3      329     17.1      304     73.2     73.7     72.8       14     1018     0.00      570     13.1
    11/18/2017 12:45      5.7      336     19.9        8     73.6     74.0     73.1       14     1018     0.00      560     13.1
    11/18/2017 13:00      5.6      335     20.3      316     74.3     75.2     73.2       14     1018     0.00      547     13.1
    11/18/2017 13:15      5.8      334     16.8      341     74.0     74.8     73.4       14     1018     0.00      519     13.1
    11/18/2017 13:30      5.5      343     16.5      321     74.2     74.5     73.6       14     1018     0.00      501     13.1
    11/18/2017 13:45      6.0      345     16.5      340     74.4     75.1     74.1       13     1018     0.00      475     13.1
    11/18/2017 14:00      7.2      339     16.7      338     74.4     75.0     74.0       12     1017     0.00      419     13.1
    11/18/2017 14:15      7.5      336     17.4      336     74.1     74.3     73.6       11     1017     0.00      336     13.1
    11/18/2017 14:30      5.7      338     18.7      341     73.7     74.0     73.4       12     1017     0.00      266     13.1
    11/18/2017 14:45      6.1      335     17.3      344     74.2     74.5     73.8       11     1017     0.00      386     13.1
    11/18/2017 15:00      6.6      335     16.5      327     74.0     74.5     73.8       11     1017     0.00      282     13.1
    11/18/2017 15:15      6.4      338     19.3      323     74.1     74.5     73.8       11     1017     0.00      298     13.1
    11/18/2017 15:30      5.9      338     17.1      348     73.9     74.2     73.6       11     1017     0.00      249     13.1
    11/18/2017 15:45      6.2      341     14.7      332     73.5     74.0     73.0       11     1017     0.00      192     13.1
    11/18/2017 16:00      5.6      342     13.7      328     72.7     73.3     71.8       11     1017     0.00      107     13.1
    11/18/2017 16:15      6.3      340     18.9        4     71.4     72.0     71.0       11     1017     0.00       39     13.1
    11/18/2017 16:30      5.5      338     15.3       23     70.8     71.2     70.3       11     1017     0.00       26     13.1
    11/18/2017 16:45      6.6      346     16.8      335     70.3     70.5     69.9       11     1017     0.00       15     13.1
    11/18/2017 17:00      6.4      339     15.1      346     69.8     70.1     69.4       11     1017     0.00        6     13.1
    11/18/2017 17:15      5.4      331     13.0      325     69.0     69.5     68.5       11     1017     0.00        1     13.2
    11/18/2017 17:30      5.4      329     12.6      340     68.4     68.8     68.0       11     1017     0.00        0     13.2
    11/18/2017 17:45      6.7      331     17.9      354     67.9     68.2     67.6       12     1017     0.00        0     13.2
    11/18/2017 18:00      5.8      336     18.3      317     67.5     67.8     67.2       11     1017     0.00        0     13.2
    11/18/2017 18:15      6.2      335     17.5      334     67.2     67.5     66.9       12     1017     0.00        0     13.2
    11/18/2017 18:30      6.1      335     18.3       20     66.9     67.1     66.7       12     1017     0.00        0     13.2
    11/18/2017 18:45      5.9      338     17.5        0     66.7     66.9     66.4       12     1017     0.00        0     13.2
    11/18/2017 19:00      5.0      339     13.6      275     66.3     66.7     66.1       12     1017     0.00        0     13.2
    11/18/2017 19:15      5.9      347     19.0      334     66.1     66.3     65.9       12     1017     0.00        0     13.2
    11/18/2017 19:30      5.2      343     19.5      335     65.8     66.2     65.6       12     1017     0.00        0     13.2
    11/18/2017 19:45      6.4      341     16.5      333     66.1     66.3     65.8       12     1017     0.00        0     13.2
    11/18/2017 20:00      4.9      345     14.4      349     65.8     66.0     65.5       12     1017     0.00        0     13.2
    11/18/2017 20:15      5.7      359     17.6       -0     65.7     66.0     65.5       12     1018     0.00        0     13.2
    11/18/2017 20:30      4.6      352     10.9      353     65.8     66.0     65.6       12     1018     0.00        0     13.2
    11/18/2017 20:45      4.2      354     13.6      329     65.9     66.1     65.6       12     1018     0.00        0     13.2
    11/18/2017 21:00      4.8      352     12.1      324     65.7     66.0     65.5       12     1018     0.00        0     13.2
    11/18/2017 21:15      4.3      352     12.2      342     65.7     66.0     65.4       12     1018     0.00        0     13.2
    11/18/2017 21:30      5.4      339     16.7      336     65.4     65.6     65.1       12     1018     0.00        0     13.2
    11/18/2017 21:45      4.6      344     14.7      334     65.3     65.5     65.0       12     1018     0.00        0     13.2
    11/18/2017 22:00      3.7      350     14.4      341     65.0     65.3     64.8       12     1018     0.00        0     13.2
    11/18/2017 22:15      4.4      353     12.3        1     65.0     65.3     64.8       12     1018     0.00        0     13.2
    11/18/2017 22:30      4.3      352     12.2      342     65.1     65.3     64.8       12     1018     0.00        0     13.2
    11/18/2017 22:45      4.5      346     12.0      349     64.8     65.1     64.6       12     1018     0.00        0     13.2
    11/18/2017 23:00      4.4      335     12.1       23     64.8     65.2     64.6       12     1018     0.00        0     13.2
    11/18/2017 23:15      3.2      314     12.7      354     64.4     64.9     63.9       12     1018     0.00        0     13.2
    11/18/2017 23:30      2.6      211      6.3      230     63.2     64.0     61.9       14     1018     0.00        0     13.3
    11/18/2017 23:45      0.8      142      2.5      137     61.5     62.1     60.8       15     1018     0.00        0     13.3
    11/19/2017 00:00      1.6      274      5.8      342     61.6     62.6     60.7       13     1018     0.00        0     13.3
    11/19/2017 00:15      1.9      266      5.2      196     61.9     62.3     61.6       13     1018     0.00        0     13.3
    11/19/2017 00:30      1.7      248      5.2      296     62.1     62.6     61.3       15     1017     0.00        0     13.3
    11/19/2017 00:45      1.5      263      5.7      273     60.8     61.3     60.3       15     1017     0.00        0     13.3
    11/19/2017 01:00      1.6      239      5.6      245     60.2     60.6     59.9       15     1017     0.00        0     13.3
    11/19/2017 01:15      2.1      279      5.9      303     60.2     61.2     59.7       14     1017     0.00        0     13.3
    11/19/2017 01:30      2.0      294      5.1      288     60.8     61.5     59.9       14     1017     0.00        0     13.3
    11/19/2017 01:45      1.9      280      4.6      289     60.3     60.8     59.9       15     1017     0.00        0     13.3
    11/19/2017 02:00      1.3      328      3.2      270     59.9     60.3     59.3       15     1017     0.00        0     13.3
    11/19/2017 02:15      1.9      318      5.9      294     60.0     60.8     59.2       16     1017     0.00        0     13.3
    11/19/2017 02:30      2.2      318      7.1      336     60.4     61.2     59.4       13     1017     0.00        0     13.3
    11/19/2017 02:45      2.2      301      6.0      317     61.3     61.8     60.6       15     1017     0.00        0     13.3
    11/19/2017 03:00      2.0      303      5.6      292     60.4     61.0     59.9       15     1017     0.00        0     13.3
    11/19/2017 03:15      2.2      300      5.7      264     60.8     61.3     60.2       16     1017     0.00        0     13.3
    11/19/2017 03:30      1.9      261      7.4      289     58.0     60.2     56.3       14     1017     0.00        0     13.3
    11/19/2017 03:45      2.1      233      5.8      236     59.8     60.5     59.1       15     1017     0.00        0     13.3
    11/19/2017 04:00      2.1      138      5.1      302     59.0     59.5     58.6       14     1016     0.00        0     13.3
    11/19/2017 04:15      2.1      184      5.6       35     59.1     59.6     58.6       14     1016     0.00        0     13.3
    11/19/2017 04:30      2.2      294      8.3      334     59.5     60.4     58.6       13     1016     0.00        0     13.3
    11/19/2017 04:45      3.3      267      9.4      334     60.7     61.4     59.3       15     1016     0.00        0     13.3
    11/19/2017 05:00      1.6      176      4.2      165     58.1     59.4     57.4       15     1016     0.00        0     13.3
    11/19/2017 05:15      1.8      189      6.7      187     57.4     57.8     56.5       16     1016     0.00        0     13.3
    11/19/2017 05:30      2.2      190      5.4      206     56.6     57.9     56.0       15     1017     0.00        0     13.3
    11/19/2017 05:45      1.3      138      3.1      218     57.5     58.0     57.1       15     1017     0.00        0     13.4
    11/19/2017 06:00      3.0        4      9.7        2     58.3     59.9     57.0       12     1017     0.00        0     13.4
    11/19/2017 06:15      4.2      349     15.7      310     60.8     61.6     59.8       11     1017     0.00        0     13.3
    11/19/2017 06:30      4.8      345     12.9      353     61.5     61.8     61.2       11     1017     0.00        3     13.3
    11/19/2017 06:45      5.0      347     12.1      335     61.3     61.5     61.1       12     1016     0.00        8     13.3
    11/19/2017 07:00      5.0      351     16.0      345     61.3     61.6     61.0       12     1016     0.00       34     13.3
    11/19/2017 07:15      4.4      349     12.0      338     61.8     62.2     61.4       12     1016     0.00       63     13.3
    11/19/2017 07:30      3.7      347      9.8        7     61.9     62.2     61.6       12     1017     0.00       52     13.3
    11/19/2017 07:45      3.6      345      9.8      316     62.1     62.5     61.8       12     1017     0.00       54     13.3
    11/19/2017 08:00      4.0      345     10.9      327     62.8     63.2     62.2       11     1017     0.00       63     13.3
    11/19/2017 08:15      4.1      344     11.7      334     63.0     63.3     62.8       12     1017     0.00       46     13.3
    11/19/2017 08:30      3.7      347      9.9      333     63.6     64.3     63.1       12     1017     0.00       48     13.3
    11/19/2017 08:45      3.3      344      9.1      345     64.7     65.5     64.0       12     1017     0.00       89     13.3
    11/19/2017 09:00      3.3      355      9.3       10     66.2     67.1     65.3       12     1017     0.00      302     13.2
    11/19/2017 09:15      3.0      352      6.7      332     68.0     68.8     67.0       11     1017     0.00      269     13.2
    11/19/2017 09:30      3.2      344     10.0      336     69.1     69.6     68.6       11     1017     0.00      437     13.1
    11/19/2017 09:45      3.1      341      7.2      320     69.8     70.4     68.9       11     1017     0.00      472     13.1
    11/19/2017 10:00      3.3      339     11.5      338     70.2     70.6     69.8       11     1017     0.00      486     13.1
    11/19/2017 10:15      3.7      345      9.7      344     71.0     71.3     70.5       10     1017     0.00      479     13.1
    11/19/2017 10:30      3.8      339     12.0      343     71.3     71.8     70.8       10     1017     0.00      522     13.1
    11/19/2017 10:45      3.2      343      9.1        6     72.0     72.6     71.5       10     1017     0.00      552     13.1
    11/19/2017 11:00      3.7      344     11.5      328     72.3     73.4     71.0        9     1017     0.00      356     13.1
    11/19/2017 11:15      3.4      348     10.2      105     71.4     72.5     70.8        9     1016     0.00      393     13.1
    11/19/2017 11:30      4.3      339     13.2       -0     72.5     73.1     72.0        9     1016     0.00      497     13.1
    11/19/2017 11:45      4.5      340     14.2        8     73.7     74.3     72.8        9     1016     0.00      606     13.1
    11/19/2017 12:00      3.1      356      7.7      332     75.3     75.9     74.3        8     1015     0.00      617     13.1
    11/19/2017 12:15      3.3      341      8.4      337     75.8     76.6     74.6        8     1015     0.00      419     13.0
    11/19/2017 12:30      3.2      341      9.1      336     74.3     74.8     73.9        9     1014     0.00      334     13.1
    11/19/2017 12:45      3.0      325      8.9      236     74.5     75.0     74.0        8     1014     0.00      378     13.1
    11/19/2017 13:00      2.5      301      8.3      294     75.5     76.6     74.5        8     1014     0.00      523     13.1
    11/19/2017 13:15      3.2      335     11.8      320     76.5     76.9     76.0        8     1014     0.00      424     13.0
    11/19/2017 13:30      3.0      329      8.5      342     76.4     76.8     76.2        8     1014     0.00      423     13.0
    11/19/2017 13:45      3.5      331     11.6      316     77.0     77.4     76.5        8     1014     0.00      473     13.0
    11/19/2017 14:00      3.7      325     11.5      352     77.1     77.5     76.6        7     1014     0.00      453     13.0
    11/19/2017 14:15      2.1      332      9.2      354     77.7     78.3     76.9        8     1013     0.00      423     13.0
    11/19/2017 14:30      2.4      325      9.7       -0     77.8     78.3     77.4        8     1013     0.00      388     13.0
    11/19/2017 14:45      3.2      336      9.0      332     77.5     78.3     77.2        7     1013     0.00      352     13.0
    11/19/2017 15:00      4.0      345      9.6      338     77.1     77.5     76.7        7     1013     0.00      311     13.0
    11/19/2017 15:15      2.5      338      7.5      333     76.7     77.0     76.3        7     1013     0.00      268     13.0
    11/19/2017 15:30      3.4      330      8.8      339     75.9     76.5     75.3        7     1013     0.00      215     13.0
    11/19/2017 15:45      3.0      334      7.2      349     75.5     76.0     75.1        8     1013     0.00      195     13.0
    11/19/2017 16:00      4.2      334     12.1      353     74.8     75.4     73.8        8     1013     0.00      132     13.0
    11/19/2017 16:15      3.6      318     10.1      334     73.5     74.1     73.0        8     1013     0.00       24     13.1
    11/19/2017 16:30      2.6      307      6.0      293     72.6     73.2     71.9        8     1013     0.00       17     13.1
    11/19/2017 16:45      3.2      319     10.3      345     71.7     71.9     71.3        8     1013     0.00        9     13.1
    11/19/2017 17:00      3.8      282      9.7      299     70.1     71.7     68.8       21     1013     0.00        3     13.1
    11/19/2017 17:15      5.3      281      9.9      231     68.0     68.9     67.1       26     1014     0.00        0     13.1
    11/19/2017 17:30      4.2      276      9.6      272     66.6     67.3     66.0       28     1014     0.00        0     13.2
    11/19/2017 17:45      3.3      264      8.2      245     65.4     66.1     64.8       30     1014     0.00        0     13.2
    11/19/2017 18:00      1.3      217      3.5       67     64.0     64.9     62.9       32     1014     0.00        0     13.2
    11/19/2017 18:15      2.7      161      3.8       75     62.6     63.3     61.5       33     1014     0.00        0     13.2
    11/19/2017 18:30      1.4      162      4.2      181     61.3     61.7     61.0       33     1015     0.00        0     13.2
    11/19/2017 18:45      0.6      125      2.1       94     60.6     61.4     59.8       33     1015     0.00        0     13.3
    11/19/2017 19:00      0.0      186      0.9      185     59.1     60.0     58.4       35     1015     0.00        0     13.3
    11/19/2017 19:15      0.9      300      2.6      335     58.1     58.5     57.7       36     1015     0.00        0     13.3
    11/19/2017 19:30      1.3      307      2.6      287     58.1     58.6     57.6       34     1015     0.00        0     13.3
    11/19/2017 19:45      0.9      266      2.4      252     57.2     57.8     56.6       36     1015     0.00        0     13.3
    11/19/2017 20:00      1.0      173      2.3      186     56.7     57.1     56.5       35     1015     0.00        0     13.3
    11/19/2017 20:15      1.9      229      4.1      213     56.3     56.6     56.0       36     1015     0.00        0     13.3
    11/19/2017 20:30      1.1      291      3.4      279     56.2     56.4     55.9       35     1015     0.00        0     13.3
    11/19/2017 20:45      0.4      303      2.5      339     56.0     56.4     55.7       35     1015     0.00        0     13.3
    11/19/2017 21:00      1.7      337      2.6      341     56.4     56.7     56.0       34     1015     0.00        0     13.3
    11/19/2017 21:15      1.1       24      3.3       35     56.2     56.6     55.9       35     1015     0.00        0     13.3
    11/19/2017 21:30      0.5       64      2.0       96     54.5     55.9     53.4       39     1015     0.00        0     13.4
    11/19/2017 21:45      0.4      296      1.7      282     52.9     53.6     52.4       43     1015     0.00        0     13.4
    11/19/2017 22:00      1.4      330      2.5      333     52.7     53.1     52.4       43     1015     0.00        0     13.4
    11/19/2017 22:15      1.5      339      2.7      345     52.9     53.1     52.5       41     1015     0.00        0     13.4
    11/19/2017 22:30      1.2       12      2.5      345     53.3     53.8     52.7       40     1015     0.00        0     13.4
    11/19/2017 22:45      1.3       28      2.2       86     52.5     53.3     51.4       44     1015     0.00        0     13.4
    11/19/2017 23:00      1.1       18      2.5       45     50.9     51.6     50.4       45     1015     0.00        0     13.4
    11/19/2017 23:15      0.3       81      1.9       67     50.3     50.9     49.9       45     1015     0.00        0     13.4
    11/19/2017 23:30      0.5      297      1.0      316     50.2     50.7     49.8       45     1015     0.00        0     13.4
    11/19/2017 23:45      0.9      301      1.9      293     50.0     50.6     49.6       43     1015     0.00        0     13.4
    11/20/2017 00:00      1.1      306      2.2      292     49.6     50.1     48.6       45     1015     0.00        0     13.4
    11/20/2017 00:15      1.1      320      1.8      345     48.7     49.3     48.2       42     1015     0.00        0     13.4
    11/20/2017 00:30      1.0       15      3.2       37     50.2     51.5     49.1       38     1015     0.00        0     13.4
    11/20/2017 00:45      0.6      336      1.6      292     50.6     51.5     49.6       43     1015     0.00        0     13.4
    11/20/2017 01:00      0.8      334      2.5      340     49.6     50.1     49.1       43     1015     0.00        0     13.4
    11/20/2017 01:15      0.2      332      2.1      351     48.8     49.1     48.5       43     1015     0.00        0     13.4
    11/20/2017 01:30      1.1      341      2.8      351     48.7     49.1     48.1       42     1015     0.00        0     13.5
    11/20/2017 01:45      0.1       45      1.2      337     48.1     48.3     47.8       42     1015     0.00        0     13.5
    11/20/2017 02:00      0.5      359      1.7      346     48.0     48.3     47.7       42     1014     0.00        0     13.5
    11/20/2017 02:15      1.1      316      1.9      294     48.1     48.5     47.3       42     1014     0.00        0     13.5
    11/20/2017 02:30      0.6      353      1.8      327     47.9     48.3     47.3       40     1014     0.00        0     13.5
    11/20/2017 02:45      1.1      267      2.2      253     47.4     48.0     46.9       44     1014     0.00        0     13.5
    11/20/2017 03:00      1.1      268      2.6      253     46.9     47.1     46.7       44     1015     0.00        0     13.5
    11/20/2017 03:15      0.4      277      1.2      257     46.8     47.2     46.2       45     1014     0.00        0     13.5
    11/20/2017 03:30      0.7       47      1.8      341     46.9     47.4     46.4       48     1014     0.00        0     13.5
    11/20/2017 03:45      0.5      350      1.6      338     47.2     47.8     46.8       43     1014     0.00        0     13.5
    11/20/2017 04:00      2.1       53      4.2       57     48.4     49.5     47.5       36     1014     0.00        0     13.5
    11/20/2017 04:15      1.2      304      2.9      343     48.5     49.6     48.0       43     1014     0.00        0     13.5
    11/20/2017 04:30      1.2      329      2.5      340     48.1     48.4     47.8       42     1014     0.00        0     13.5
    11/20/2017 04:45      0.9      323      2.4       99     47.6     48.3     47.3       44     1014     0.00        0     13.5
    11/20/2017 05:00      0.8       58      2.3      100     47.8     48.0     47.3       43     1014     0.00        0     13.5
    11/20/2017 05:15      0.8      302      2.4      260     47.6     48.0     47.1       47     1014     0.00        0     13.5
    11/20/2017 05:30      1.4      323      2.3      334     47.9     49.0     47.1       40     1014     0.00        0     13.5
    11/20/2017 05:45      1.6      328      2.6      348     48.8     49.1     48.6       41     1015     0.00        0     13.5
    11/20/2017 06:00      1.0      341      2.8      338     48.8     49.7     48.1       36     1015     0.00        0     13.5
    11/20/2017 06:15      0.5      359      1.8      337     49.1     49.8     48.4       40     1015     0.00        0     13.5
    11/20/2017 06:30      0.5      319      1.9      302     48.0     48.5     47.6       42     1015     0.00        2     13.5
    11/20/2017 06:45      0.4      325      1.3       88     48.0     48.4     47.6       43     1015     0.00        8     13.5
    11/20/2017 07:00      0.5       16      3.1       25     49.2     50.1     48.2       43     1015     0.00       33     13.5
    11/20/2017 07:15      0.5      297      1.8      342     50.3     50.9     49.6       40     1016     0.00       54     13.4
    11/20/2017 07:30      0.3      274      1.1      317     51.7     52.6     50.8       37     1016     0.00       45     13.4
    11/20/2017 07:45      1.0      269      2.1      254     52.9     53.1     52.4       37     1016     0.00       32     13.4
    11/20/2017 08:00      1.7      256      3.4      252     54.0     55.7     53.0       34     1016     0.00       41     13.4
    11/20/2017 08:15      0.7      276      2.2      263     56.5     57.3     55.5       30     1016     0.00       62     13.4
    11/20/2017 08:30      1.8      186      3.6      185     58.5     59.8     57.2       28     1016     0.00       98     13.3
    11/20/2017 08:45      0.7      260      2.0      243     60.2     61.0     59.5       27     1016     0.00      118     13.3
    11/20/2017 09:00      0.5      213      2.1      216     62.3     63.9     61.0       23     1016     0.00      239     13.3
    11/20/2017 09:15      2.1      203      4.5      193     64.8     65.8     63.8       19     1016     0.00      254     13.2
    11/20/2017 09:30      1.6      200      3.5      246     66.5     67.6     65.6       16     1016     0.00      409     13.2
    11/20/2017 09:45      1.2      197      2.8      205     68.2     69.2     67.0       15     1016     0.00      409     13.1
    11/20/2017 10:00      1.5      176      4.0      154     70.1     70.7     69.2       16     1016     0.00      378     13.1
    11/20/2017 10:15      3.0      180      4.5      178     70.5     71.3     70.0       13     1016     0.00      426     13.1
    11/20/2017 10:30      2.3      216      4.9      260     71.2     72.3     70.0       13     1016     0.00      460     13.1
    11/20/2017 10:45      2.3      215      4.1      206     72.6     72.8     72.2       13     1016     0.00      505     13.1
    11/20/2017 11:00      1.8      197      4.6      190     73.4     74.2     72.6       10     1016     0.00      441     13.1
    11/20/2017 11:15      1.9      208      4.8      175     74.4     75.2     73.8       10     1016     0.00      456     13.1
    11/20/2017 11:30      1.9      179      4.8      197     75.3     76.0     74.8       10     1016     0.00      476     13.0
    11/20/2017 11:45      3.6      163      6.6      184     75.7     76.3     74.9       10     1015     0.00      528     13.0
    11/20/2017 12:00      1.6      179      3.6      140     77.1     78.1     75.7       11     1015     0.00      493     13.0
    11/20/2017 12:15      1.9      153      5.2      190     77.6     78.0     77.2       11     1015     0.00      515     13.0
    11/20/2017 12:30      1.6       76      3.5       59     77.8     78.7     77.2       10     1015     0.00      515     13.0
    11/20/2017 12:45      1.2      181      4.8      212     79.2     80.5     77.7       11     1015     0.00      524     13.0
    11/20/2017 13:00      2.7      158      6.4      155     79.6     80.5     78.9       10     1014     0.00      504     13.0
    11/20/2017 13:15      2.4      188      7.1      163     80.1     81.0     78.8       10     1014     0.00      426     13.0
    11/20/2017 13:30      2.9      223      8.3      252     80.5     81.0     80.0       10     1014     0.00      447     13.0
    11/20/2017 13:45      3.0      265      6.7      253     80.4     80.7     80.1       10     1014     0.00      456     13.0
    11/20/2017 14:00      3.0      256      8.9      248     80.0     80.5     79.4       10     1014     0.00      383     13.0
    11/20/2017 14:15      2.9      268      7.4      244     80.7     81.1     80.2       11     1014     0.00      416     13.0
    11/20/2017 14:30      2.2      247      5.0      243     80.6     81.0     80.2       11     1014     0.00      340     13.0
    11/20/2017 14:45      2.4      211      5.3      201     81.0     81.8     80.0       12     1014     0.00      313     13.0
    11/20/2017 15:00      3.2      135      6.8      125     79.2     80.7     77.6       19     1014     0.00      261     13.0
    11/20/2017 15:15      2.6      130      6.4      172     77.1     77.8     76.4       21     1014     0.00      174     13.0
    11/20/2017 15:30      2.3      134      4.8      144     76.2     76.9     75.9       22     1014     0.00      144     13.0
    11/20/2017 15:45      2.3      134      5.2      140     75.9     76.2     75.5       23     1014     0.00      126     13.0
    11/20/2017 16:00      2.8       93      6.2       78     75.0     75.5     74.4       24     1014     0.00      124     13.0
    11/20/2017 16:15      2.8       89      5.7       85     74.0     74.6     73.4       25     1014     0.00       56     13.1
    11/20/2017 16:30      1.8      103      4.4       78     73.1     73.6     72.4       27     1014     0.00       25     13.1
    11/20/2017 16:45      1.9       92      3.6       90     72.0     72.7     71.2       28     1014     0.00       10     13.1
    11/20/2017 17:00      1.4       91      3.9      100     70.9     71.5     70.4       30     1014     0.00        2     13.1
    11/20/2017 17:15      1.3       51      3.5       77     69.7     70.5     69.0       31     1014     0.00        0     13.1
    11/20/2017 17:30      0.7      239      2.0      240     67.4     69.1     66.8       34     1014     0.00        0     13.1
    11/20/2017 17:45      1.1       76      2.4       98     67.0     67.2     66.8       33     1014     0.00        0     13.2
    11/20/2017 18:00      1.3       57      3.8       80     66.4     67.3     65.9       33     1015     0.00        0     13.2
    11/20/2017 18:15      1.4      196      3.7       91     65.6     67.0     64.5       39     1015     0.00        0     13.2
    11/20/2017 18:30      1.6       61      4.1       85     64.9     65.3     64.4       35     1015     0.00        0     13.2
    11/20/2017 18:45      1.4      287      4.4      250     64.6     65.5     63.9       37     1015     0.00        0     13.2
    11/20/2017 19:00      1.5      310      5.1      295     64.0     64.7     63.7       36     1015     0.00        0     13.2
    11/20/2017 19:15      3.5      306      7.3      327     66.6     69.7     64.2       24     1015     0.00        0     13.2
    11/20/2017 19:30      4.0      320      9.3       10     71.4     72.8     69.6       16     1015     0.00        0     13.2
    11/20/2017 19:45      3.5      335     10.4        0     72.9     73.5     72.4       14     1015     0.00        0     13.2
    11/20/2017 20:00      5.5      341     13.2      345     73.8     74.1     73.4       13     1015     0.00        0     13.2
    11/20/2017 20:15      3.9      331      9.3      347     73.3     73.9     72.8       13     1015     0.00        0     13.2
    11/20/2017 20:30      3.8      330      8.0        6     73.0     73.2     72.7       13     1015     0.00        0     13.2
    11/20/2017 20:45      4.4      322     11.1      315     73.2     73.5     72.7       13     1015     0.00        0     13.2
    11/20/2017 21:00      5.1      334     12.4      345     73.1     73.4     72.8       12     1015     0.00        0     13.2
    11/20/2017 21:15      3.7        2     11.1      336     72.7     73.3     72.1       12     1015     0.00        0     13.2
    11/20/2017 21:30      3.5       28      7.5      342     71.8     72.3     71.1       12     1016     0.00        0     13.2
    11/20/2017 21:45      2.5      336      6.1       -0     70.9     71.5     70.4       12     1016     0.00        0     13.2
    11/20/2017 22:00      1.6      184      4.0      170     69.4     70.7     67.7       18     1016     0.00        0     13.2
    11/20/2017 22:15      1.0      241      3.8      306     67.0     67.9     66.5       17     1015     0.00        0     13.2
    11/20/2017 22:30      3.1      333     12.1      348     68.4     71.3     66.4       13     1015     0.00        0     13.2
    11/20/2017 22:45      3.8      318     11.2      321     71.9     72.5     71.2       14     1015     0.00        0     13.2
    11/20/2017 23:00      4.8      327     14.0      304     72.8     73.4     71.7       13     1015     0.00        0     13.2
    11/20/2017 23:15      3.2        8      9.2      342     72.8     73.3     72.5       13     1015     0.00        0     13.2
    11/20/2017 23:30      3.0       53      7.5       65     72.2     72.6     71.5       13     1016     0.00        0     13.2
    11/20/2017 23:45      5.4       61     10.0       93     71.7     72.5     71.3       13     1016     0.00        0     13.2
    11/21/2017 00:00      4.4        1     14.2      326     72.3     72.6     71.9       12     1016     0.00        0     13.2
    11/21/2017 00:15      6.2      336     13.4      319     72.2     72.4     71.9       13     1016     0.00        0     13.2
    11/21/2017 00:30      5.3      332     14.5      210     72.3     72.6     71.9       13     1015     0.00        0     13.2